모두
Kyogle Hospital Airport YXKO 기상
There is no TAF data available at YXKO. Showing TAF data for YLIS (21 mi 동남).
LSY 터미널 지역 예측(YXKO에 대한 데이터 없음)
| Here is the undecoded forecast: 2026/05/05 00:36 YLIS 050036Z 0502/0514 27005KT 9999 SCT020 FM050300 11008KT 9999 SCT030 INTER 0509/0514 3000 SHRA BKN008 PROB30 0509/0514 0500 FG BKN001 PROB30 TEMPO 0509/0514 VRB25G40KT 2000 TSRA BKN005 FEW030CB RMK T 24 25 21 18 Q 1016 1015 1017 1018 |
There is no METAR data available at YXKO. Showing METAR data for YCAS (18 mi 남).
최근 CSI METAR 이력(YXKO에 대한 데이터 없음)
| Date | Time (AEST) | Flight Rules | Wind Dir. | Speed | Type | Height AGL (ft) | Visibility | Temp (°C) | Temp (°F) | Dew Point (°C) | Dew Point (°F) | Rel. Humid. | Pressure | Density Altitude | Remarks |
|---|---|---|---|---|---|---|---|---|---|---|---|---|---|---|---|
| 05-5월 | 14:00 | n/a | 260° | 2 kt | Missing | 27° | 80° | 17° | 62° | 54% | 1014 mb | 1,502 ft | |||
| 05-5월 | 13:00 | n/a | 340° | 1 kt | Missing | 26° | 78° | 17° | 62° | 58% | 1015 mb | 1,352 ft | |||
| 05-5월 | 12:00 | n/a | 350° | 3 kt | Missing | 25° | 77° | 18° | 64° | 65% | 1016 mb | 1,203 ft | |||
| 05-5월 | 11:00 | n/a | 290° | 3 kt | Missing | 25° | 77° | 19° | 66° | 69% | 1017 mb | 1,173 ft | |||
| 05-5월 | 10:00 | n/a | 300° | 4 kt | Missing | 22° | 71° | 19° | 66° | 83% | 1018 mb | 783 ft | |||
| 05-5월 | 09:00 | n/a | 310° | 4 kt | Missing | 19° | 66° | 19° | 66° | 100% | 1018 mb | 423 ft | |||
| 05-5월 | 08:00 | n/a | 350° | 4 kt | Missing | 19° | 66° | 18° | 64° | 94% | 1018 mb | 423 ft | |||
| 05-5월 | 07:00 | n/a | 310° | 4 kt | Missing | 19° | 66° | 19° | 66° | 100% | 1017 mb | 453 ft | |||
| 05-5월 | 06:00 | n/a | 290° | 2 kt | Missing | 19° | 66° | 18° | 64° | 94% | 1017 mb | 453 ft | |||
| 05-5월 | 05:00 | n/a | 290° | 3 kt | Missing | 19° | 66° | 19° | 66° | 100% | 1017 mb | 453 ft | |||
| 05-5월 | 04:00 | n/a | 320° | 5 kt | Missing | 19° | 66° | 19° | 66° | 100% | 1016 mb | 483 ft | |||
| 05-5월 | 03:00 | n/a | 50° | 4 kt | Missing | 19° | 66° | 19° | 66° | 100% | 1016 mb | 483 ft | |||
| 05-5월 | 02:00 | n/a | 130° | 1 kt | Missing | 18° | 64° | 18° | 64° | 100% | 1017 mb | 333 ft | |||
| 05-5월 | 01:00 | n/a | Calm | Missing | 18° | 64° | 18° | 64° | 100% | 1017 mb | 333 ft | ||||
| 05-5월 | 00:00 | n/a | 130° | 1 kt | Missing | 16° | 60° | 16° | 60° | 100% | 1017 mb | 93 ft | |||
| 04-5월 | 23:00 | n/a | 130° | 4 kt | Missing | 17° | 62° | 17° | 62° | 100% | 1018 mb | 183 ft | |||
| 04-5월 | 22:00 | n/a | Calm | Missing | 17° | 62° | 17° | 62° | 100% | 1018 mb | 183 ft | ||||
| 04-5월 | 21:00 | n/a | 130° | 3 kt | Missing | 19° | 66° | 18° | 64° | 94% | 1018 mb | 423 ft | |||
| 04-5월 | 20:00 | n/a | 130° | 3 kt | Missing | 19° | 66° | 18° | 64° | 94% | 1018 mb | 423 ft | |||
| 04-5월 | 19:00 | n/a | 110° | 3 kt | Missing | 19° | 66° | 18° | 64° | 94% | 1018 mb | 423 ft | |||
| 04-5월 | 18:00 | n/a | 110° | 5 kt | Missing | 20° | 68° | 19° | 66° | 94% | 1017 mb | 573 ft | |||
| 04-5월 | 17:00 | n/a | 100° | 7 kt | Missing | 22° | 71° | 19° | 66° | 83% | 1016 mb | 843 ft | |||
| 04-5월 | 16:00 | n/a | 100° | 4 kt | Missing | 26° | 78° | 17° | 62° | 58% | 1016 mb | 1,323 ft | |||
| 04-5월 | 15:00 | n/a | 40° | 2 kt | Missing | 26° | 78° | 17° | 62° | 58% | 1016 mb | 1,323 ft |
로그인
| 귀하의 브라우저는 지원되지 않습니다.. 브라우저를 업그레이드하세요 |
